Aurora, New York
Current Conditions -  °F | °C
As of 1:53 AM on Sunday 21 Dec 2014 (Local Time) from KPEO Reporting Station
Overcast Overcast  
Wind Chill: 28°   Ceiling: 2100
Heat Index: 28°   Visibility: 9mi
Dew Point: 22°   Wind: 0mph
Humidity: 78%   Direction: NA
Pressure: 30.25"   Gusts: NA
Location:  42.75°N, 76.7°W
Report Text: KPEO 210653Z AUTO 00000KT 9SM OVC021 M02/M06 A3025 RMK AO2 SLP258 T10221056
Loading
Personal Weather Stations






























Interactive Weather Map New forecast layout! Learn more

10-Day Weather Forecast

Advertisements
Track Severe Weather on mobile